sensor_id;sensor_type;location;lat;lon;timestamp;temperature;humidity
27226;DHT22;14732;51.074;3.788;2023-02-22T00:01:20;5.80;99.90
27226;DHT22;14732;51.074;3.788;2023-02-22T00:04:11;5.80;99.90
27226;DHT22;14732;51.074;3.788;2023-02-22T00:06:38;5.70;99.90
27226;DHT22;14732;51.074;3.788;2023-02-22T00:09:04;5.60;99.90
27226;DHT22;14732;51.074;3.788;2023-02-22T00:11:31;5.70;99.90
27226;DHT22;14732;51.074;3.788;2023-02-22T00:13:56;5.70;99.90
27226;DHT22;14732;51.074;3.788;2023-02-22T00:16:23;5.80;99.90
27226;DHT22;14732;51.074;3.788;2023-02-22T00:18:50;5.90;99.90
27226;DHT22;14732;51.074;3.788;2023-02-22T00:21:17;6.00;99.90
27226;DHT22;14732;51.074;3.788;2023-02-22T00:23:45;6.00;99.90
27226;DHT22;14732;51.074;3.788;2023-02-22T00:26:18;5.80;99.90
27226;DHT22;14732;51.074;3.788;2023-02-22T00:28:49;5.70;99.90
27226;DHT22;14732;51.074;3.788;2023-02-22T00:31:15;5.70;99.90
27226;DHT22;14732;51.074;3.788;2023-02-22T00:33:42;5.80;99.90
27226;DHT22;14732;51.074;3.788;2023-02-22T00:36:10;5.80;99.90
27226;DHT22;14732;51.074;3.788;2023-02-22T00:38:36;5.70;99.90
27226;DHT22;14732;51.074;3.788;2023-02-22T00:41:02;5.60;99.90
27226;DHT22;14732;51.074;3.788;2023-02-22T00:43:27;5.60;99.90
27226;DHT22;14732;51.074;3.788;2023-02-22T00:45:53;5.50;99.90
27226;DHT22;14732;51.074;3.788;2023-02-22T00:48:19;5.60;99.90
27226;DHT22;14732;51.074;3.788;2023-02-22T00:50:45;5.50;99.90
27226;DHT22;14732;51.074;3.788;2023-02-22T00:53:13;5.60;99.90
27226;DHT22;14732;51.074;3.788;2023-02-22T00:55:39;5.70;99.90
27226;DHT22;14732;51.074;3.788;2023-02-22T00:58:05;5.70;99.90
27226;DHT22;14732;51.074;3.788;2023-02-22T01:00:35;5.60;99.90
27226;DHT22;14732;51.074;3.788;2023-02-22T01:03:02;5.80;99.90
27226;DHT22;14732;51.074;3.788;2023-02-22T01:05:30;5.80;99.90
27226;DHT22;14732;51.074;3.788;2023-02-22T01:07:56;5.90;99.90
27226;DHT22;14732;51.074;3.788;2023-02-22T01:10:24;6.00;99.90
27226;DHT22;14732;51.074;3.788;2023-02-22T01:12:50;6.20;99.90
27226;DHT22;14732;51.074;3.788;2023-02-22T01:15:19;6.10;99.90
27226;DHT22;14732;51.074;3.788;2023-02-22T01:17:52;6.00;99.90
27226;DHT22;14732;51.074;3.788;2023-02-22T01:20:18;6.00;99.90
27226;DHT22;14732;51.074;3.788;2023-02-22T01:22:46;6.00;99.90
27226;DHT22;14732;51.074;3.788;2023-02-22T01:25:16;6.00;99.90
27226;DHT22;14732;51.074;3.788;2023-02-22T01:27:42;5.90;99.90
27226;DHT22;14732;51.074;3.788;2023-02-22T01:30:09;5.80;99.90
27226;DHT22;14732;51.074;3.788;2023-02-22T01:32:38;5.60;99.90
27226;DHT22;14732;51.074;3.788;2023-02-22T01:35:07;5.80;99.90
27226;DHT22;14732;51.074;3.788;2023-02-22T01:37:34;5.90;99.90
27226;DHT22;14732;51.074;3.788;2023-02-22T01:40:00;5.90;99.90
27226;DHT22;14732;51.074;3.788;2023-02-22T01:42:26;5.80;99.90
27226;DHT22;14732;51.074;3.788;2023-02-22T01:45:34;5.80;99.90
27226;DHT22;14732;51.074;3.788;2023-02-22T01:48:42;5.90;99.90
27226;DHT22;14732;51.074;3.788;2023-02-22T01:51:23;6.10;99.90
27226;DHT22;14732;51.074;3.788;2023-02-22T01:56:29;5.90;99.90
27226;DHT22;14732;51.074;3.788;2023-02-22T01:59:02;5.90;99.90
27226;DHT22;14732;51.074;3.788;2023-02-22T02:01:31;6.10;99.90
27226;DHT22;14732;51.074;3.788;2023-02-22T02:03:59;5.80;99.90
27226;DHT22;14732;51.074;3.788;2023-02-22T02:06:27;5.80;99.90
27226;DHT22;14732;51.074;3.788;2023-02-22T02:11:35;5.90;99.90
27226;DHT22;14732;51.074;3.788;2023-02-22T02:14:00;6.00;99.90
27226;DHT22;14732;51.074;3.788;2023-02-22T02:16:37;5.70;99.90
27226;DHT22;14732;51.074;3.788;2023-02-22T02:19:14;5.70;99.90
27226;DHT22;14732;51.074;3.788;2023-02-22T02:27:33;5.80;99.90
27226;DHT22;14732;51.074;3.788;2023-02-22T02:33:48;5.80;99.90
27226;DHT22;14732;51.074;3.788;2023-02-22T02:39:02;5.80;99.90
27226;DHT22;14732;51.074;3.788;2023-02-22T02:41:36;5.90;99.90
27226;DHT22;14732;51.074;3.788;2023-02-22T02:44:23;5.80;99.90
27226;DHT22;14732;51.074;3.788;2023-02-22T02:47:00;5.80;99.90
27226;DHT22;14732;51.074;3.788;2023-02-22T02:49:47;5.90;99.90
27226;DHT22;14732;51.074;3.788;2023-02-22T02:52:17;6.00;99.90
27226;DHT22;14732;51.074;3.788;2023-02-22T02:54:44;6.00;99.90
27226;DHT22;14732;51.074;3.788;2023-02-22T02:57:11;6.00;99.90
27226;DHT22;14732;51.074;3.788;2023-02-22T02:59:37;6.00;99.90
27226;DHT22;14732;51.074;3.788;2023-02-22T03:02:13;5.80;99.90
27226;DHT22;14732;51.074;3.788;2023-02-22T03:07:27;5.70;99.90
27226;DHT22;14732;51.074;3.788;2023-02-22T03:10:17;5.60;99.90
27226;DHT22;14732;51.074;3.788;2023-02-22T03:15:45;5.80;99.90
27226;DHT22;14732;51.074;3.788;2023-02-22T03:18:26;5.80;99.90
27226;DHT22;14732;51.074;3.788;2023-02-22T03:24:05;5.90;99.90
27226;DHT22;14732;51.074;3.788;2023-02-22T03:29:39;5.90;99.90
27226;DHT22;14732;51.074;3.788;2023-02-22T03:32:11;5.80;99.90
27226;DHT22;14732;51.074;3.788;2023-02-22T03:34:50;5.80;99.90
27226;DHT22;14732;51.074;3.788;2023-02-22T03:37:20;5.80;99.90
27226;DHT22;14732;51.074;3.788;2023-02-22T03:39:50;5.70;99.90
27226;DHT22;14732;51.074;3.788;2023-02-22T03:42:18;5.80;99.90
27226;DHT22;14732;51.074;3.788;2023-02-22T03:44:46;5.90;99.90
27226;DHT22;14732;51.074;3.788;2023-02-22T03:47:17;5.80;99.90
27226;DHT22;14732;51.074;3.788;2023-02-22T03:50:22;5.80;99.90
27226;DHT22;14732;51.074;3.788;2023-02-22T03:52:50;5.70;99.90
27226;DHT22;14732;51.074;3.788;2023-02-22T03:55:17;5.70;99.90
27226;DHT22;14732;51.074;3.788;2023-02-22T03:57:53;5.80;99.90
27226;DHT22;14732;51.074;3.788;2023-02-22T04:02:47;5.80;99.90
27226;DHT22;14732;51.074;3.788;2023-02-22T04:05:14;5.80;99.90
27226;DHT22;14732;51.074;3.788;2023-02-22T04:07:40;5.90;99.90
27226;DHT22;14732;51.074;3.788;2023-02-22T04:10:06;5.80;99.90
27226;DHT22;14732;51.074;3.788;2023-02-22T04:12:36;5.60;99.90
27226;DHT22;14732;51.074;3.788;2023-02-22T04:15:02;5.50;99.90
27226;DHT22;14732;51.074;3.788;2023-02-22T04:17:28;5.50;99.90
27226;DHT22;14732;51.074;3.788;2023-02-22T04:19:54;5.50;99.90
27226;DHT22;14732;51.074;3.788;2023-02-22T04:22:20;5.60;99.90
27226;DHT22;14732;51.074;3.788;2023-02-22T04:24:45;5.60;99.90
27226;DHT22;14732;51.074;3.788;2023-02-22T04:27:13;5.70;99.90
27226;DHT22;14732;51.074;3.788;2023-02-22T04:29:39;5.70;99.90
27226;DHT22;14732;51.074;3.788;2023-02-22T04:32:05;5.80;99.90
27226;DHT22;14732;51.074;3.788;2023-02-22T04:34:31;5.90;99.90
27226;DHT22;14732;51.074;3.788;2023-02-22T04:36:56;5.90;99.90
27226;DHT22;14732;51.074;3.788;2023-02-22T04:39:22;6.00;99.90
27226;DHT22;14732;51.074;3.788;2023-02-22T04:41:48;6.00;99.90
27226;DHT22;14732;51.074;3.788;2023-02-22T04:44:13;6.10;99.90
27226;DHT22;14732;51.074;3.788;2023-02-22T04:46:39;6.10;99.90
27226;DHT22;14732;51.074;3.788;2023-02-22T04:49:05;6.20;99.90
27226;DHT22;14732;51.074;3.788;2023-02-22T04:51:30;5.90;99.90
27226;DHT22;14732;51.074;3.788;2023-02-22T04:53:56;5.90;99.90
27226;DHT22;14732;51.074;3.788;2023-02-22T04:56:22;5.90;99.90
27226;DHT22;14732;51.074;3.788;2023-02-22T04:58:48;5.80;99.90
27226;DHT22;14732;51.074;3.788;2023-02-22T05:01:14;5.90;99.90
27226;DHT22;14732;51.074;3.788;2023-02-22T05:03:41;5.80;99.90
27226;DHT22;14732;51.074;3.788;2023-02-22T05:06:07;5.70;99.90
27226;DHT22;14732;51.074;3.788;2023-02-22T05:08:32;5.60;99.90
27226;DHT22;14732;51.074;3.788;2023-02-22T05:10:58;5.60;99.90
27226;DHT22;14732;51.074;3.788;2023-02-22T05:13:24;5.50;99.90
27226;DHT22;14732;51.074;3.788;2023-02-22T05:15:50;5.50;99.90
27226;DHT22;14732;51.074;3.788;2023-02-22T05:18:16;5.70;99.90
27226;DHT22;14732;51.074;3.788;2023-02-22T05:20:42;5.70;99.90
27226;DHT22;14732;51.074;3.788;2023-02-22T05:23:07;5.60;99.90
27226;DHT22;14732;51.074;3.788;2023-02-22T05:25:33;5.70;99.90
27226;DHT22;14732;51.074;3.788;2023-02-22T05:28:06;5.70;99.90
27226;DHT22;14732;51.074;3.788;2023-02-22T05:30:33;5.70;99.90
27226;DHT22;14732;51.074;3.788;2023-02-22T05:33:00;5.70;99.90
27226;DHT22;14732;51.074;3.788;2023-02-22T05:35:27;5.70;99.90
27226;DHT22;14732;51.074;3.788;2023-02-22T05:37:53;5.90;99.90
27226;DHT22;14732;51.074;3.788;2023-02-22T05:40:20;6.00;99.90
27226;DHT22;14732;51.074;3.788;2023-02-22T05:42:48;6.10;99.90
27226;DHT22;14732;51.074;3.788;2023-02-22T05:45:15;6.30;99.90
27226;DHT22;14732;51.074;3.788;2023-02-22T05:47:42;6.20;99.90
27226;DHT22;14732;51.074;3.788;2023-02-22T05:50:08;6.10;99.90
27226;DHT22;14732;51.074;3.788;2023-02-22T05:52:34;6.20;99.90
27226;DHT22;14732;51.074;3.788;2023-02-22T05:55:00;6.10;99.90
27226;DHT22;14732;51.074;3.788;2023-02-22T05:57:25;6.10;99.90
27226;DHT22;14732;51.074;3.788;2023-02-22T05:59:51;5.90;99.90
27226;DHT22;14732;51.074;3.788;2023-02-22T06:02:17;5.80;99.90
27226;DHT22;14732;51.074;3.788;2023-02-22T06:04:46;5.70;99.90
27226;DHT22;14732;51.074;3.788;2023-02-22T06:07:13;5.60;99.90
27226;DHT22;14732;51.074;3.788;2023-02-22T06:09:39;5.80;99.90
27226;DHT22;14732;51.074;3.788;2023-02-22T06:12:05;5.90;99.90
27226;DHT22;14732;51.074;3.788;2023-02-22T06:14:31;5.90;99.90
27226;DHT22;14732;51.074;3.788;2023-02-22T06:16:57;5.70;99.90
27226;DHT22;14732;51.074;3.788;2023-02-22T06:19:23;5.80;99.90
27226;DHT22;14732;51.074;3.788;2023-02-22T06:21:54;6.20;99.90
27226;DHT22;14732;51.074;3.788;2023-02-22T06:24:20;6.40;99.90
27226;DHT22;14732;51.074;3.788;2023-02-22T06:26:52;6.60;99.90
27226;DHT22;14732;51.074;3.788;2023-02-22T06:29:18;6.60;99.90
27226;DHT22;14732;51.074;3.788;2023-02-22T06:31:44;6.30;99.90
27226;DHT22;14732;51.074;3.788;2023-02-22T06:34:10;5.80;99.90
27226;DHT22;14732;51.074;3.788;2023-02-22T06:36:36;5.60;99.90
27226;DHT22;14732;51.074;3.788;2023-02-22T06:39:01;5.50;99.90
27226;DHT22;14732;51.074;3.788;2023-02-22T06:41:27;5.50;99.90
27226;DHT22;14732;51.074;3.788;2023-02-22T06:43:53;5.50;99.90
27226;DHT22;14732;51.074;3.788;2023-02-22T06:46:19;5.50;99.90
27226;DHT22;14732;51.074;3.788;2023-02-22T06:48:46;5.60;99.90
27226;DHT22;14732;51.074;3.788;2023-02-22T06:51:12;5.60;99.90
27226;DHT22;14732;51.074;3.788;2023-02-22T06:53:37;5.60;99.90
27226;DHT22;14732;51.074;3.788;2023-02-22T06:56:03;5.70;99.90
27226;DHT22;14732;51.074;3.788;2023-02-22T06:58:29;5.80;99.90
27226;DHT22;14732;51.074;3.788;2023-02-22T07:00:55;5.60;99.90
27226;DHT22;14732;51.074;3.788;2023-02-22T07:03:20;5.40;99.90
27226;DHT22;14732;51.074;3.788;2023-02-22T07:05:46;5.40;99.90
27226;DHT22;14732;51.074;3.788;2023-02-22T07:08:12;5.60;99.90
27226;DHT22;14732;51.074;3.788;2023-02-22T07:10:39;5.70;99.90
27226;DHT22;14732;51.074;3.788;2023-02-22T07:13:06;5.70;99.90
27226;DHT22;14732;51.074;3.788;2023-02-22T07:15:33;5.80;99.90
27226;DHT22;14732;51.074;3.788;2023-02-22T07:17:59;5.80;99.90
27226;DHT22;14732;51.074;3.788;2023-02-22T07:20:27;5.90;99.90
27226;DHT22;14732;51.074;3.788;2023-02-22T07:22:53;5.90;99.90
27226;DHT22;14732;51.074;3.788;2023-02-22T07:25:19;6.00;99.90
27226;DHT22;14732;51.074;3.788;2023-02-22T07:27:45;5.90;99.90
27226;DHT22;14732;51.074;3.788;2023-02-22T07:30:20;5.90;99.90
27226;DHT22;14732;51.074;3.788;2023-02-22T07:32:50;5.90;99.90
27226;DHT22;14732;51.074;3.788;2023-02-22T07:35:18;5.90;99.90
27226;DHT22;14732;51.074;3.788;2023-02-22T07:37:45;6.00;99.90
27226;DHT22;14732;51.074;3.788;2023-02-22T07:40:13;6.10;99.90
27226;DHT22;14732;51.074;3.788;2023-02-22T07:43:00;5.90;99.90
27226;DHT22;14732;51.074;3.788;2023-02-22T07:45:35;5.80;99.90
27226;DHT22;14732;51.074;3.788;2023-02-22T07:48:03;5.80;99.90
27226;DHT22;14732;51.074;3.788;2023-02-22T07:50:30;6.00;99.90
27226;DHT22;14732;51.074;3.788;2023-02-22T07:52:59;6.40;99.90
27226;DHT22;14732;51.074;3.788;2023-02-22T07:55:26;6.80;99.90
27226;DHT22;14732;51.074;3.788;2023-02-22T07:57:55;7.00;99.90
27226;DHT22;14732;51.074;3.788;2023-02-22T08:00:27;7.20;99.90
27226;DHT22;14732;51.074;3.788;2023-02-22T08:02:53;7.40;99.90
27226;DHT22;14732;51.074;3.788;2023-02-22T08:05:22;7.50;99.90
27226;DHT22;14732;51.074;3.788;2023-02-22T08:07:48;7.60;99.90
27226;DHT22;14732;51.074;3.788;2023-02-22T08:10:15;7.70;99.90
27226;DHT22;14732;51.074;3.788;2023-02-22T08:12:41;7.80;99.90
27226;DHT22;14732;51.074;3.788;2023-02-22T08:15:12;7.90;99.90
27226;DHT22;14732;51.074;3.788;2023-02-22T08:17:39;8.00;99.90
27226;DHT22;14732;51.074;3.788;2023-02-22T08:20:05;8.00;99.90
27226;DHT22;14732;51.074;3.788;2023-02-22T08:22:31;8.00;99.90
27226;DHT22;14732;51.074;3.788;2023-02-22T08:24:56;8.10;99.90
27226;DHT22;14732;51.074;3.788;2023-02-22T08:27:27;8.10;99.90
27226;DHT22;14732;51.074;3.788;2023-02-22T08:29:53;8.30;99.90
27226;DHT22;14732;51.074;3.788;2023-02-22T08:32:18;8.40;99.90
27226;DHT22;14732;51.074;3.788;2023-02-22T08:34:45;8.40;99.90
27226;DHT22;14732;51.074;3.788;2023-02-22T08:37:11;8.40;99.90
27226;DHT22;14732;51.074;3.788;2023-02-22T08:39:36;8.60;99.90
27226;DHT22;14732;51.074;3.788;2023-02-22T08:42:02;8.80;99.90
27226;DHT22;14732;51.074;3.788;2023-02-22T08:44:28;8.90;99.90
27226;DHT22;14732;51.074;3.788;2023-02-22T08:46:54;8.90;99.90
27226;DHT22;14732;51.074;3.788;2023-02-22T08:49:20;9.00;99.90
27226;DHT22;14732;51.074;3.788;2023-02-22T08:51:46;9.10;99.90
27226;DHT22;14732;51.074;3.788;2023-02-22T08:54:12;9.20;99.90
27226;DHT22;14732;51.074;3.788;2023-02-22T08:56:38;9.40;99.90
27226;DHT22;14732;51.074;3.788;2023-02-22T08:59:03;9.60;99.90
27226;DHT22;14732;51.074;3.788;2023-02-22T09:01:29;9.90;99.90
27226;DHT22;14732;51.074;3.788;2023-02-22T09:03:57;10.00;99.90
27226;DHT22;14732;51.074;3.788;2023-02-22T09:06:23;10.00;99.90
27226;DHT22;14732;51.074;3.788;2023-02-22T09:08:49;10.40;99.90
27226;DHT22;14732;51.074;3.788;2023-02-22T09:11:14;10.50;99.90
27226;DHT22;14732;51.074;3.788;2023-02-22T09:13:40;10.50;99.90
27226;DHT22;14732;51.074;3.788;2023-02-22T09:16:06;10.60;99.90
27226;DHT22;14732;51.074;3.788;2023-02-22T09:18:31;10.60;99.90
27226;DHT22;14732;51.074;3.788;2023-02-22T09:20:57;10.60;99.90
27226;DHT22;14732;51.074;3.788;2023-02-22T09:23:23;10.70;99.90
27226;DHT22;14732;51.074;3.788;2023-02-22T09:25:50;10.70;99.90
27226;DHT22;14732;51.074;3.788;2023-02-22T09:28:16;10.70;99.90
27226;DHT22;14732;51.074;3.788;2023-02-22T09:30:42;10.70;99.90
27226;DHT22;14732;51.074;3.788;2023-02-22T09:33:15;10.90;99.90
27226;DHT22;14732;51.074;3.788;2023-02-22T09:35:42;11.10;99.90
27226;DHT22;14732;51.074;3.788;2023-02-22T09:38:15;11.10;99.90
27226;DHT22;14732;51.074;3.788;2023-02-22T09:40:49;11.40;99.90
27226;DHT22;14732;51.074;3.788;2023-02-22T09:48:27;11.70;99.90
27226;DHT22;14732;51.074;3.788;2023-02-22T09:50:58;11.80;99.90
27226;DHT22;14732;51.074;3.788;2023-02-22T09:53:34;11.70;99.90
27226;DHT22;14732;51.074;3.788;2023-02-22T09:56:07;11.80;99.90
27226;DHT22;14732;51.074;3.788;2023-02-22T09:58:59;12.00;99.90
27226;DHT22;14732;51.074;3.788;2023-02-22T10:01:42;12.10;99.90
27226;DHT22;14732;51.074;3.788;2023-02-22T10:09:31;12.30;99.90
27226;DHT22;14732;51.074;3.788;2023-02-22T10:12:28;12.10;99.90
27226;DHT22;14732;51.074;3.788;2023-02-22T10:18:03;11.90;99.90
27226;DHT22;14732;51.074;3.788;2023-02-22T10:26:20;11.80;99.90
27226;DHT22;14732;51.074;3.788;2023-02-22T10:29:18;12.00;99.90
27226;DHT22;14732;51.074;3.788;2023-02-22T10:31:55;11.90;99.90
27226;DHT22;14732;51.074;3.788;2023-02-22T10:34:28;12.00;99.90
27226;DHT22;14732;51.074;3.788;2023-02-22T10:37:28;12.00;99.90
27226;DHT22;14732;51.074;3.788;2023-02-22T10:40:22;12.30;99.90
27226;DHT22;14732;51.074;3.788;2023-02-22T10:42:57;12.30;99.90
27226;DHT22;14732;51.074;3.788;2023-02-22T10:45:31;12.50;99.90
27226;DHT22;14732;51.074;3.788;2023-02-22T10:48:00;12.50;99.90
27226;DHT22;14732;51.074;3.788;2023-02-22T10:50:33;12.50;99.90
27226;DHT22;14732;51.074;3.788;2023-02-22T10:53:01;12.50;99.90
27226;DHT22;14732;51.074;3.788;2023-02-22T10:55:27;12.30;99.90
27226;DHT22;14732;51.074;3.788;2023-02-22T10:58:00;12.50;99.90
27226;DHT22;14732;51.074;3.788;2023-02-22T11:03:03;12.50;99.90
27226;DHT22;14732;51.074;3.788;2023-02-22T11:05:38;12.20;99.90
27226;DHT22;14732;51.074;3.788;2023-02-22T11:10:53;12.30;99.90
27226;DHT22;14732;51.074;3.788;2023-02-22T11:13:30;12.40;99.90
27226;DHT22;14732;51.074;3.788;2023-02-22T11:16:18;12.70;99.90
27226;DHT22;14732;51.074;3.788;2023-02-22T11:18:45;12.80;99.90
27226;DHT22;14732;51.074;3.788;2023-02-22T11:21:11;12.80;99.90
27226;DHT22;14732;51.074;3.788;2023-02-22T11:23:40;12.90;99.90
27226;DHT22;14732;51.074;3.788;2023-02-22T11:26:12;12.90;99.90
27226;DHT22;14732;51.074;3.788;2023-02-22T11:28:45;12.60;99.90
27226;DHT22;14732;51.074;3.788;2023-02-22T11:31:26;12.70;99.90
27226;DHT22;14732;51.074;3.788;2023-02-22T11:36:36;13.20;99.90
27226;DHT22;14732;51.074;3.788;2023-02-22T11:41:50;13.00;99.90
27226;DHT22;14732;51.074;3.788;2023-02-22T11:44:23;13.20;99.90
27226;DHT22;14732;51.074;3.788;2023-02-22T11:46:50;13.10;99.90
27226;DHT22;14732;51.074;3.788;2023-02-22T11:49:24;12.80;99.90
27226;DHT22;14732;51.074;3.788;2023-02-22T11:57:30;13.20;99.90
27226;DHT22;14732;51.074;3.788;2023-02-22T12:00:30;13.10;99.90
27226;DHT22;14732;51.074;3.788;2023-02-22T12:14:16;13.10;99.90
27226;DHT22;14732;51.074;3.788;2023-02-22T12:22:20;13.20;99.90
27226;DHT22;14732;51.074;3.788;2023-02-22T12:24:52;12.90;99.90
27226;DHT22;14732;51.074;3.788;2023-02-22T12:30:40;13.00;99.90
27226;DHT22;14732;51.074;3.788;2023-02-22T12:33:28;13.30;99.90
27226;DHT22;14732;51.074;3.788;2023-02-22T12:35:57;13.30;99.90
27226;DHT22;14732;51.074;3.788;2023-02-22T12:38:33;13.20;99.90
27226;DHT22;14732;51.074;3.788;2023-02-22T12:41:33;13.10;99.90
27226;DHT22;14732;51.074;3.788;2023-02-22T12:44:09;13.10;99.90
27226;DHT22;14732;51.074;3.788;2023-02-22T12:46:48;13.00;99.90
27226;DHT22;14732;51.074;3.788;2023-02-22T12:49:37;13.00;99.90
27226;DHT22;14732;51.074;3.788;2023-02-22T12:52:30;12.90;99.90
27226;DHT22;14732;51.074;3.788;2023-02-22T12:58:08;12.70;99.90
27226;DHT22;14732;51.074;3.788;2023-02-22T13:00:43;12.70;99.90
27226;DHT22;14732;51.074;3.788;2023-02-22T13:03:31;12.60;99.90
27226;DHT22;14732;51.074;3.788;2023-02-22T13:06:38;12.40;99.90
27226;DHT22;14732;51.074;3.788;2023-02-22T13:20:18;11.60;99.90
27226;DHT22;14732;51.074;3.788;2023-02-22T13:26:04;11.80;99.90
27226;DHT22;14732;51.074;3.788;2023-02-22T13:53:59;11.60;99.90
27226;DHT22;14732;51.074;3.788;2023-02-22T13:56:28;11.60;99.90
27226;DHT22;14732;51.074;3.788;2023-02-22T13:58:58;11.80;99.90
27226;DHT22;14732;51.074;3.788;2023-02-22T14:01:39;11.70;99.90
27226;DHT22;14732;51.074;3.788;2023-02-22T14:06:58;11.80;99.90
27226;DHT22;14732;51.074;3.788;2023-02-22T14:09:56;11.80;99.90
27226;DHT22;14732;51.074;3.788;2023-02-22T14:15:18;11.80;99.90
27226;DHT22;14732;51.074;3.788;2023-02-22T14:17:47;11.80;99.90
27226;DHT22;14732;51.074;3.788;2023-02-22T14:22:46;12.00;99.90
27226;DHT22;14732;51.074;3.788;2023-02-22T14:28:07;11.90;99.90
27226;DHT22;14732;51.074;3.788;2023-02-22T14:30:37;11.80;99.90
27226;DHT22;14732;51.074;3.788;2023-02-22T14:36:07;11.60;99.90
27226;DHT22;14732;51.074;3.788;2023-02-22T14:38:33;11.70;99.90
27226;DHT22;14732;51.074;3.788;2023-02-22T14:40:59;11.70;99.90
27226;DHT22;14732;51.074;3.788;2023-02-22T14:43:27;11.90;99.90
27226;DHT22;14732;51.074;3.788;2023-02-22T14:45:57;11.80;99.90
27226;DHT22;14732;51.074;3.788;2023-02-22T14:51:14;11.90;99.90
27226;DHT22;14732;51.074;3.788;2023-02-22T14:53:48;11.70;99.90
27226;DHT22;14732;51.074;3.788;2023-02-22T14:56:35;11.70;99.90
27226;DHT22;14732;51.074;3.788;2023-02-22T14:59:20;11.60;99.90
27226;DHT22;14732;51.074;3.788;2023-02-22T15:01:48;11.60;99.90
27226;DHT22;14732;51.074;3.788;2023-02-22T15:06:47;11.60;99.90
27226;DHT22;14732;51.074;3.788;2023-02-22T15:09:14;11.60;99.90
27226;DHT22;14732;51.074;3.788;2023-02-22T15:14:32;11.70;99.90
27226;DHT22;14732;51.074;3.788;2023-02-22T15:17:07;11.70;99.90
27226;DHT22;14732;51.074;3.788;2023-02-22T15:19:37;11.70;99.90
27226;DHT22;14732;51.074;3.788;2023-02-22T15:22:03;11.60;99.90
27226;DHT22;14732;51.074;3.788;2023-02-22T15:24:35;11.60;99.90
27226;DHT22;14732;51.074;3.788;2023-02-22T15:27:06;11.60;99.90
27226;DHT22;14732;51.074;3.788;2023-02-22T15:29:37;11.70;99.90
27226;DHT22;14732;51.074;3.788;2023-02-22T15:34:49;11.90;99.90
27226;DHT22;14732;51.074;3.788;2023-02-22T15:37:21;11.90;99.90
27226;DHT22;14732;51.074;3.788;2023-02-22T15:39:50;11.80;99.90
27226;DHT22;14732;51.074;3.788;2023-02-22T15:42:24;11.70;99.90
27226;DHT22;14732;51.074;3.788;2023-02-22T15:44:52;11.70;99.90
27226;DHT22;14732;51.074;3.788;2023-02-22T15:47:23;11.80;99.90
27226;DHT22;14732;51.074;3.788;2023-02-22T15:52:58;11.70;99.90
27226;DHT22;14732;51.074;3.788;2023-02-22T15:55:39;11.70;99.90
27226;DHT22;14732;51.074;3.788;2023-02-22T15:58:20;11.70;99.90
27226;DHT22;14732;51.074;3.788;2023-02-22T16:00:56;11.80;99.90
27226;DHT22;14732;51.074;3.788;2023-02-22T16:03:23;11.80;99.90
27226;DHT22;14732;51.074;3.788;2023-02-22T16:05:55;11.80;99.90
27226;DHT22;14732;51.074;3.788;2023-02-22T16:11:23;11.70;99.90
27226;DHT22;14732;51.074;3.788;2023-02-22T16:14:02;11.60;99.90
27226;DHT22;14732;51.074;3.788;2023-02-22T16:16:36;11.50;99.90
27226;DHT22;14732;51.074;3.788;2023-02-22T16:19:41;11.70;99.90
27226;DHT22;14732;51.074;3.788;2023-02-22T16:30:22;11.50;99.90
27226;DHT22;14732;51.074;3.788;2023-02-22T16:32:49;11.60;99.90
27226;DHT22;14732;51.074;3.788;2023-02-22T16:35:16;11.60;99.90
27226;DHT22;14732;51.074;3.788;2023-02-22T16:37:50;11.60;99.90
27226;DHT22;14732;51.074;3.788;2023-02-22T16:40:22;11.60;99.90
27226;DHT22;14732;51.074;3.788;2023-02-22T16:42:49;11.80;99.90
27226;DHT22;14732;51.074;3.788;2023-02-22T16:45:17;11.80;99.90
27226;DHT22;14732;51.074;3.788;2023-02-22T16:47:44;11.70;99.90
27226;DHT22;14732;51.074;3.788;2023-02-22T16:50:10;11.70;99.90
27226;DHT22;14732;51.074;3.788;2023-02-22T16:52:38;11.70;99.90
27226;DHT22;14732;51.074;3.788;2023-02-22T16:55:07;11.70;99.90
27226;DHT22;14732;51.074;3.788;2023-02-22T16:57:34;11.60;99.90
27226;DHT22;14732;51.074;3.788;2023-02-22T17:00:00;11.70;99.90
27226;DHT22;14732;51.074;3.788;2023-02-22T17:02:26;11.70;99.90
27226;DHT22;14732;51.074;3.788;2023-02-22T17:04:52;11.70;99.90
27226;DHT22;14732;51.074;3.788;2023-02-22T17:07:19;11.60;99.90
27226;DHT22;14732;51.074;3.788;2023-02-22T17:09:47;11.70;99.90
27226;DHT22;14732;51.074;3.788;2023-02-22T17:12:15;11.60;99.90
27226;DHT22;14732;51.074;3.788;2023-02-22T17:14:44;11.70;99.90
27226;DHT22;14732;51.074;3.788;2023-02-22T17:17:14;11.70;99.90
27226;DHT22;14732;51.074;3.788;2023-02-22T17:19:40;11.60;99.90
27226;DHT22;14732;51.074;3.788;2023-02-22T17:22:06;11.60;99.90
27226;DHT22;14732;51.074;3.788;2023-02-22T17:24:34;11.50;99.90
27226;DHT22;14732;51.074;3.788;2023-02-22T17:27:00;11.60;99.90
27226;DHT22;14732;51.074;3.788;2023-02-22T17:29:27;11.60;99.90
27226;DHT22;14732;51.074;3.788;2023-02-22T17:31:53;11.60;99.90
27226;DHT22;14732;51.074;3.788;2023-02-22T17:34:19;11.60;99.90
27226;DHT22;14732;51.074;3.788;2023-02-22T17:36:44;11.60;99.90
27226;DHT22;14732;51.074;3.788;2023-02-22T17:39:10;11.60;99.90
27226;DHT22;14732;51.074;3.788;2023-02-22T17:41:37;11.60;99.90
27226;DHT22;14732;51.074;3.788;2023-02-22T17:44:03;11.50;99.90
27226;DHT22;14732;51.074;3.788;2023-02-22T17:46:29;11.60;99.90
27226;DHT22;14732;51.074;3.788;2023-02-22T17:48:54;11.60;99.90
27226;DHT22;14732;51.074;3.788;2023-02-22T17:51:22;11.60;99.90
27226;DHT22;14732;51.074;3.788;2023-02-22T17:53:49;11.60;99.90
27226;DHT22;14732;51.074;3.788;2023-02-22T17:56:16;11.60;99.90
27226;DHT22;14732;51.074;3.788;2023-02-22T17:58:47;11.60;99.90
27226;DHT22;14732;51.074;3.788;2023-02-22T18:01:29;11.70;99.90
27226;DHT22;14732;51.074;3.788;2023-02-22T18:03:57;11.70;99.90
27226;DHT22;14732;51.074;3.788;2023-02-22T18:06:25;11.60;99.90
27226;DHT22;14732;51.074;3.788;2023-02-22T18:08:53;11.60;99.90
27226;DHT22;14732;51.074;3.788;2023-02-22T18:11:20;11.60;99.90
27226;DHT22;14732;51.074;3.788;2023-02-22T18:13:51;11.60;99.90
27226;DHT22;14732;51.074;3.788;2023-02-22T18:16:17;11.70;99.90
27226;DHT22;14732;51.074;3.788;2023-02-22T18:18:43;11.60;99.90
27226;DHT22;14732;51.074;3.788;2023-02-22T18:21:09;11.50;99.90
27226;DHT22;14732;51.074;3.788;2023-02-22T18:23:35;11.50;99.90
27226;DHT22;14732;51.074;3.788;2023-02-22T18:26:01;11.60;99.90
27226;DHT22;14732;51.074;3.788;2023-02-22T18:28:28;11.60;99.90
27226;DHT22;14732;51.074;3.788;2023-02-22T18:30:55;11.60;99.90
27226;DHT22;14732;51.074;3.788;2023-02-22T18:33:23;11.60;99.90
27226;DHT22;14732;51.074;3.788;2023-02-22T18:35:49;11.70;99.90
27226;DHT22;14732;51.074;3.788;2023-02-22T18:38:20;11.60;99.90
27226;DHT22;14732;51.074;3.788;2023-02-22T18:41:00;11.60;99.90
27226;DHT22;14732;51.074;3.788;2023-02-22T18:43:26;11.60;99.90
27226;DHT22;14732;51.074;3.788;2023-02-22T18:45:53;11.60;99.90
27226;DHT22;14732;51.074;3.788;2023-02-22T18:48:18;11.60;99.90